Time;durP1;ratioP1;P1;durP2;ratioP2;P2;SDS_P1;SDS_P2;PMS_P1;PMS_P2;Temp;Humidity;BMP_temperature;BMP_pressure;BME280_temperature;BME280_humidity;BME280_pressure;Samples;Min_cycle;Max_cycle;Signal;HPM_P1;HPM_P2
2022/02/21 00:02:16;;;;;;;12.15;2.42;;;7.70;68.40;;;;;;4952808;28;20045;-77
2022/02/21 00:04:42;;;;;;;9.77;3.00;;;7.60;68.70;;;;;;4958529;28;20110;-77
2022/02/21 00:07:07;;;;;;;12.57;2.83;;;7.60;69.40;;;;;;4954949;28;20249;-78
2022/02/21 00:09:33;;;;;;;14.20;2.70;;;7.60;70.40;;;;;;4947516;28;20039;-77
2022/02/21 00:11:59;;;;;;;8.27;3.22;;;7.60;71.80;;;;;;4951485;28;20501;-77
2022/02/21 00:14:25;;;;;;;15.88;3.10;;;7.60;72.30;;;;;;4963861;28;20058;-77
2022/02/21 00:16:51;;;;;;;11.88;3.10;;;7.60;73.30;;;;;;4948515;28;20043;-76
2022/02/21 00:19:17;;;;;;;11.60;3.25;;;7.60;73.60;;;;;;4942580;28;20498;-77
2022/02/21 00:21:43;;;;;;;15.65;3.42;;;7.50;73.50;;;;;;4961455;28;20438;-77
2022/02/21 00:24:08;;;;;;;9.30;2.75;;;7.50;73.20;;;;;;4949382;28;20039;-76
2022/02/21 00:26:35;;;;;;;12.13;3.15;;;7.40;72.50;;;;;;4950608;28;20567;-77
2022/02/21 00:29:00;;;;;;;11.70;2.88;;;7.40;72.20;;;;;;4947925;28;20027;-76
2022/02/21 00:31:27;;;;;;;12.50;2.90;;;7.30;71.50;;;;;;4929756;28;20041;-76
2022/02/21 00:33:54;;;;;;;12.07;3.47;;;7.20;71.80;;;;;;4948199;28;20043;-76
2022/02/21 00:36:20;;;;;;;14.88;2.78;;;7.20;71.10;;;;;;4944655;28;20106;-76
2022/02/21 00:38:46;;;;;;;13.55;3.35;;;7.20;70.70;;;;;;4943319;28;20035;-76
2022/02/21 00:41:11;;;;;;;14.43;3.80;;;7.20;70.40;;;;;;4942103;28;20090;-75
2022/02/21 00:43:37;;;;;;;15.60;3.25;;;7.10;70.20;;;;;;4951201;28;20023;-77
2022/02/21 00:46:03;;;;;;;12.63;2.85;;;7.10;69.80;;;;;;4949081;28;20036;-76
2022/02/21 00:48:29;;;;;;;13.82;3.05;;;7.00;69.60;;;;;;4942845;28;20035;-76
2022/02/21 00:50:55;;;;;;;11.45;2.45;;;7.00;68.60;;;;;;4953200;28;20031;-76
2022/02/21 00:53:20;;;;;;;13.35;3.30;;;7.10;68.70;;;;;;4948737;28;20081;-76
2022/02/21 00:55:46;;;;;;;12.65;2.83;;;7.10;68.00;;;;;;4943491;28;20102;-76
2022/02/21 00:58:12;;;;;;;12.77;2.53;;;7.10;68.50;;;;;;4945097;28;20380;-76
2022/02/21 01:00:38;;;;;;;10.70;3.33;;;7.00;68.80;;;;;;4955516;28;20536;-76
2022/02/21 01:03:04;;;;;;;9.20;2.33;;;7.10;69.10;;;;;;4952507;28;20047;-76
2022/02/21 01:05:30;;;;;;;13.48;3.45;;;7.00;67.40;;;;;;4957452;28;20498;-77
2022/02/21 01:07:56;;;;;;;13.85;3.58;;;7.00;67.80;;;;;;4939149;28;20074;-76
2022/02/21 01:10:21;;;;;;;12.15;3.15;;;6.90;67.80;;;;;;4945615;28;20032;-76
2022/02/21 01:12:47;;;;;;;11.80;2.75;;;6.90;67.50;;;;;;4942473;28;20054;-76
2022/02/21 01:15:14;;;;;;;12.05;2.92;;;6.90;66.20;;;;;;4930990;28;20472;-76
2022/02/21 01:17:44;;;;;;;17.20;3.00;;;6.80;66.30;;;;;;4948615;28;20035;-77
2022/02/21 01:20:11;;;;;;;13.23;3.28;;;6.80;66.50;;;;;;4949153;28;20083;-77
2022/02/21 01:22:37;;;;;;;13.02;4.43;;;6.90;66.30;;;;;;4942472;28;20039;-76
2022/02/21 01:25:07;;;;;;;13.68;5.22;;;6.80;66.90;;;;;;4942281;28;20023;-76
2022/02/21 01:27:33;;;;;;;18.55;5.88;;;6.80;67.30;;;;;;4949365;28;20480;-77
2022/02/21 01:29:58;;;;;;;15.48;4.45;;;6.70;67.70;;;;;;4945442;28;20034;-77
2022/02/21 01:32:24;;;;;;;13.30;3.90;;;6.70;67.50;;;;;;4951224;28;20106;-77
2022/02/21 01:34:50;;;;;;;10.65;2.75;;;6.70;66.90;;;;;;4947512;28;20027;-76
2022/02/21 01:37:15;;;;;;;12.75;2.90;;;6.60;66.40;;;;;;4942394;28;20030;-77
2022/02/21 01:39:41;;;;;;;13.52;2.75;;;6.60;66.40;;;;;;4945149;28;20302;-77
2022/02/21 01:42:08;;;;;;;12.38;3.10;;;6.60;65.80;;;;;;4946241;28;20043;-76
2022/02/21 01:44:37;;;;;;;14.50;4.07;;;6.50;65.10;;;;;;4947885;28;20038;-77
2022/02/21 01:47:05;;;;;;;16.58;3.47;;;6.60;65.80;;;;;;4954785;28;20061;-77
2022/02/21 01:49:31;;;;;;;11.77;2.67;;;6.50;66.10;;;;;;4954576;28;20030;-77
2022/02/21 01:51:57;;;;;;;10.80;3.15;;;6.50;67.70;;;;;;4956071;28;20035;-77
2022/02/21 01:54:22;;;;;;;14.65;4.45;;;6.50;68.90;;;;;;4953835;28;20031;-76
2022/02/21 01:56:48;;;;;;;17.27;3.40;;;6.40;69.70;;;;;;4946169;28;20031;-77
2022/02/21 01:59:14;;;;;;;14.50;3.70;;;6.40;70.20;;;;;;4959268;28;20431;-77
2022/02/21 02:01:39;;;;;;;16.98;3.72;;;6.40;70.20;;;;;;4948663;28;20035;-77
2022/02/21 02:04:05;;;;;;;19.00;3.78;;;6.40;70.20;;;;;;4949669;28;20024;-77
2022/02/21 02:06:31;;;;;;;14.45;3.33;;;6.40;68.30;;;;;;4950626;28;20059;-77
2022/02/21 02:09:00;;;;;;;24.38;4.93;;;6.40;67.20;;;;;;4950374;28;20035;-76
2022/02/21 02:11:26;;;;;;;17.15;3.65;;;6.30;67.60;;;;;;4958223;28;20034;-76
2022/02/21 02:13:52;;;;;;;16.73;3.67;;;6.30;67.00;;;;;;4965440;28;20138;-77
2022/02/21 02:16:19;;;;;;;17.02;4.35;;;6.20;67.50;;;;;;4967970;28;20053;-77
2022/02/21 02:18:46;;;;;;;14.57;3.47;;;6.20;66.90;;;;;;4958507;28;20123;-77
2022/02/21 02:21:19;;;;;;;22.25;3.92;;;6.20;67.10;;;;;;4945564;28;20098;-77
2022/02/21 02:23:45;;;;;;;20.75;4.75;;;6.10;67.10;;;;;;4952723;28;20027;-76
2022/02/21 02:26:11;;;;;;;15.20;3.80;;;6.10;66.50;;;;;;4949533;28;20110;-78
2022/02/21 02:28:37;;;;;;;22.25;4.50;;;6.10;66.70;;;;;;4956328;28;20035;-78
2022/02/21 02:31:02;;;;;;;14.73;4.22;;;6.10;66.80;;;;;;4947323;28;20031;-77
2022/02/21 02:33:28;;;;;;;17.77;4.05;;;6.10;66.70;;;;;;4949253;28;20472;-77
2022/02/21 02:35:53;;;;;;;16.20;4.70;;;6.10;67.20;;;;;;4946785;28;20027;-78
2022/02/21 02:38:19;;;;;;;13.63;3.95;;;6.10;67.20;;;;;;4951528;28;20035;-77
2022/02/21 02:40:45;;;;;;;17.80;4.88;;;6.00;67.30;;;;;;4951418;28;20175;-78
2022/02/21 02:43:12;;;;;;;18.58;3.95;;;6.00;67.10;;;;;;4948829;28;20091;-78
2022/02/21 02:45:43;;;;;;;17.27;3.78;;;6.00;67.50;;;;;;4973393;28;20026;-78
2022/02/21 02:48:09;;;;;;;19.83;3.90;;;6.10;66.60;;;;;;4972483;28;20042;-77
2022/02/21 02:50:34;;;;;;;15.15;3.50;;;6.00;67.10;;;;;;4959845;28;20238;-78
2022/02/21 02:53:00;;;;;;;14.52;4.18;;;6.00;67.40;;;;;;4944031;28;20151;-78
2022/02/21 02:55:26;;;;;;;21.05;4.53;;;6.00;67.30;;;;;;4952812;28;20879;-77
2022/02/21 02:57:51;;;;;;;17.85;3.83;;;6.00;67.70;;;;;;4957738;28;20134;-77
2022/02/21 03:00:17;;;;;;;16.90;4.25;;;5.90;67.90;;;;;;4951485;28;20027;-77
2022/02/21 03:02:43;;;;;;;14.77;4.38;;;6.00;67.80;;;;;;4946037;28;20050;-78
2022/02/21 03:05:09;;;;;;;19.98;4.68;;;5.90;67.70;;;;;;4941425;28;20723;-77
2022/02/21 03:07:34;;;;;;;22.17;4.88;;;5.90;68.00;;;;;;4932369;28;20485;-77
2022/02/21 03:10:00;;;;;;;16.88;4.32;;;5.90;68.40;;;;;;4946200;28;20518;-78
2022/02/21 03:12:26;;;;;;;22.25;4.65;;;5.90;68.00;;;;;;4950307;28;20031;-77
2022/02/21 03:14:52;;;;;;;16.33;4.60;;;5.90;68.40;;;;;;4945825;28;20360;-78
2022/02/21 03:17:17;;;;;;;21.50;4.93;;;5.90;67.80;;;;;;4966450;28;20455;-77
2022/02/21 03:19:43;;;;;;;19.80;4.72;;;6.00;67.90;;;;;;4944716;28;20513;-77
2022/02/21 03:22:09;;;;;;;15.65;4.32;;;5.90;67.90;;;;;;4942351;28;20467;-77
2022/02/21 03:24:34;;;;;;;15.85;3.75;;;5.90;68.40;;;;;;4946687;28;20019;-77
2022/02/21 03:27:00;;;;;;;16.13;4.40;;;5.90;67.90;;;;;;4948682;28;20061;-77
2022/02/21 03:29:26;;;;;;;24.70;6.15;;;5.90;68.40;;;;;;4950536;28;20027;-76
2022/02/21 03:31:51;;;;;;;15.25;4.13;;;5.90;68.70;;;;;;4934061;28;20039;-77
2022/02/21 03:34:17;;;;;;;16.10;3.80;;;5.90;69.00;;;;;;4942749;28;20503;-77
2022/02/21 03:36:42;;;;;;;18.95;5.38;;;5.90;69.10;;;;;;4954580;28;20033;-77
2022/02/21 03:39:08;;;;;;;21.75;4.88;;;5.90;69.30;;;;;;4937762;28;20307;-76
2022/02/21 03:41:35;;;;;;;18.45;4.47;;;5.90;69.30;;;;;;4943892;28;20036;-76
2022/02/21 03:44:02;;;;;;;15.13;3.70;;;6.00;69.00;;;;;;4952968;28;20394;-77
2022/02/21 03:46:29;;;;;;;11.57;3.00;;;6.00;68.90;;;;;;4950381;28;20555;-76
2022/02/21 03:48:55;;;;;;;19.45;3.28;;;6.00;68.80;;;;;;4944502;28;20066;-76
2022/02/21 03:51:20;;;;;;;13.07;3.13;;;5.90;68.70;;;;;;4948322;28;20790;-76
2022/02/21 03:53:46;;;;;;;16.23;3.22;;;5.90;68.60;;;;;;4943896;28;20678;-77
2022/02/21 03:56:11;;;;;;;16.35;4.35;;;6.00;69.00;;;;;;4946282;28;20038;-76
2022/02/21 03:58:37;;;;;;;13.70;3.42;;;5.90;69.10;;;;;;4948237;28;20563;-76
2022/02/21 04:01:03;;;;;;;16.35;5.20;;;5.80;69.80;;;;;;4949826;28;20027;-76
2022/02/21 04:03:29;;;;;;;17.38;3.47;;;5.80;70.10;;;;;;4943273;28;20036;-77
2022/02/21 04:05:54;;;;;;;13.10;3.30;;;5.80;70.10;;;;;;4953345;28;20042;-77
2022/02/21 04:08:20;;;;;;;19.25;3.72;;;5.80;70.50;;;;;;4947232;28;20077;-77
2022/02/21 04:10:46;;;;;;;11.13;2.97;;;5.70;69.90;;;;;;4943238;28;20078;-77
2022/02/21 04:13:11;;;;;;;11.90;2.63;;;5.70;69.80;;;;;;4944654;28;20114;-76
2022/02/21 04:15:37;;;;;;;14.45;3.42;;;5.70;69.60;;;;;;4947194;28;20105;-76
2022/02/21 04:18:03;;;;;;;15.85;3.63;;;5.70;70.00;;;;;;4944728;28;20031;-76
2022/02/21 04:20:30;;;;;;;14.05;2.78;;;5.70;70.60;;;;;;4941950;28;20265;-77
2022/02/21 04:22:56;;;;;;;12.68;2.95;;;5.70;71.00;;;;;;4947081;28;20395;-76
2022/02/21 04:25:22;;;;;;;14.38;3.17;;;5.70;71.60;;;;;;4945812;28;20031;-76
2022/02/21 04:27:49;;;;;;;11.35;2.60;;;5.60;72.30;;;;;;4947001;28;20518;-76
2022/02/21 04:30:28;;;;;;;13.68;2.88;;;5.70;72.70;;;;;;4943030;28;20420;-76
2022/02/21 04:32:55;;;;;;;10.20;2.72;;;5.60;73.10;;;;;;4942708;28;20038;-76
2022/02/21 04:35:21;;;;;;;11.07;2.70;;;5.60;73.10;;;;;;4944226;28;20670;-75
2022/02/21 04:37:47;;;;;;;13.32;3.67;;;5.70;73.10;;;;;;4944797;28;20082;-76
2022/02/21 04:40:23;;;;;;;15.02;3.13;;;5.60;73.40;;;;;;4944126;28;20035;-76
2022/02/21 04:42:50;;;;;;;10.75;2.83;;;5.50;73.80;;;;;;4948767;28;20479;-77
2022/02/21 04:45:16;;;;;;;12.57;2.90;;;5.50;74.30;;;;;;4952768;28;20395;-77
2022/02/21 04:47:42;;;;;;;13.45;2.85;;;5.40;74.50;;;;;;4946468;28;20027;-77
2022/02/21 04:50:09;;;;;;;16.17;3.92;;;5.40;74.70;;;;;;4942751;28;20149;-76
2022/02/21 04:52:37;;;;;;;13.05;2.95;;;5.40;74.10;;;;;;4948482;28;20035;-78
2022/02/21 04:55:05;;;;;;;11.43;2.97;;;5.40;74.30;;;;;;4946516;28;20423;-77
2022/02/21 04:57:31;;;;;;;12.15;3.25;;;5.30;74.40;;;;;;4948893;28;20098;-77
2022/02/21 04:59:56;;;;;;;9.27;3.38;;;5.30;74.60;;;;;;4944997;28;20043;-78
2022/02/21 05:02:22;;;;;;;14.18;3.85;;;5.20;74.70;;;;;;4942415;28;20640;-77
2022/02/21 05:04:48;;;;;;;11.20;3.10;;;5.20;74.80;;;;;;4941474;28;20031;-77
2022/02/21 05:07:14;;;;;;;12.40;3.83;;;5.10;75.00;;;;;;4950115;28;20273;-77
2022/02/21 05:09:39;;;;;;;14.82;3.67;;;5.20;75.20;;;;;;4943554;28;20025;-77
2022/02/21 05:12:05;;;;;;;15.18;3.70;;;5.10;75.10;;;;;;4948648;28;20034;-77
2022/02/21 05:14:31;;;;;;;11.50;3.72;;;5.10;75.20;;;;;;4944059;28;20118;-77
2022/02/21 05:16:57;;;;;;;14.40;3.22;;;5.10;75.30;;;;;;4945107;28;20547;-77
2022/02/21 05:19:23;;;;;;;16.42;3.72;;;5.10;75.10;;;;;;4944835;28;20035;-77
2022/02/21 05:21:48;;;;;;;12.73;3.28;;;5.10;74.90;;;;;;4946701;28;20039;-77
2022/02/21 05:24:14;;;;;;;13.02;3.58;;;5.10;74.90;;;;;;4936518;28;20035;-76
2022/02/21 05:26:40;;;;;;;13.50;3.50;;;5.10;75.10;;;;;;4935710;28;20567;-78
2022/02/21 05:29:06;;;;;;;12.68;3.25;;;5.00;75.20;;;;;;4921295;28;20027;-77
2022/02/21 05:31:32;;;;;;;13.32;3.35;;;5.10;74.40;;;;;;4924340;28;20126;-78
2022/02/21 05:33:58;;;;;;;11.23;3.42;;;5.10;74.60;;;;;;4929904;28;20031;-77
2022/02/21 05:36:23;;;;;;;11.35;3.30;;;5.10;74.80;;;;;;4931962;28;20051;-77
2022/02/21 05:38:49;;;;;;;14.95;3.92;;;5.10;74.80;;;;;;4939810;28;20030;-77
2022/02/21 05:41:15;;;;;;;16.42;3.58;;;5.00;74.80;;;;;;4938543;28;20166;-77
2022/02/21 05:43:40;;;;;;;14.77;4.18;;;5.10;74.50;;;;;;4932616;28;20205;-77
2022/02/21 05:46:06;;;;;;;12.85;3.10;;;5.10;74.60;;;;;;4937957;28;20086;-77
2022/02/21 05:48:32;;;;;;;13.10;3.85;;;5.00;74.60;;;;;;4943674;28;20508;-78
2022/02/21 05:50:58;;;;;;;16.63;4.00;;;5.00;74.50;;;;;;4943404;28;20050;-77
2022/02/21 05:53:24;;;;;;;14.18;4.72;;;5.10;74.60;;;;;;4950792;28;20035;-78
2022/02/21 05:55:50;;;;;;;14.55;3.97;;;5.00;74.40;;;;;;4940141;28;20048;-77
2022/02/21 05:58:15;;;;;;;15.82;5.55;;;5.10;74.40;;;;;;4943369;28;20466;-78
2022/02/21 06:00:43;;;;;;;17.23;5.43;;;5.10;74.30;;;;;;4934955;28;20052;-77
2022/02/21 06:03:09;;;;;;;16.83;5.72;;;5.00;74.60;;;;;;4937894;28;20074;-78
2022/02/21 06:05:34;;;;;;;12.60;4.03;;;5.00;74.50;;;;;;4932243;28;20130;-76
2022/02/21 06:08:00;;;;;;;16.63;3.95;;;5.10;74.40;;;;;;4936118;28;20055;-75
2022/02/21 06:10:26;;;;;;;14.65;4.63;;;5.10;73.90;;;;;;4933632;28;20043;-75
2022/02/21 06:12:51;;;;;;;13.40;4.15;;;5.10;73.80;;;;;;4934023;28;20449;-76
2022/02/21 06:15:17;;;;;;;10.48;3.72;;;5.10;73.80;;;;;;4939227;28;20049;-78
2022/02/21 06:17:43;;;;;;;14.75;3.75;;;5.10;73.40;;;;;;4942076;28;20051;-75
2022/02/21 06:20:09;;;;;;;12.75;3.92;;;5.20;73.00;;;;;;4935532;28;20534;-76
2022/02/21 06:22:35;;;;;;;13.00;3.33;;;5.20;72.80;;;;;;4936860;28;20048;-76
2022/02/21 06:25:01;;;;;;;15.18;3.40;;;5.20;72.70;;;;;;4945197;28;20039;-76
2022/02/21 06:27:27;;;;;;;16.98;3.35;;;5.20;72.60;;;;;;4946401;28;20032;-76
2022/02/21 06:29:53;;;;;;;15.23;3.47;;;5.20;72.40;;;;;;4943943;28;20031;-75
2022/02/21 06:32:19;;;;;;;13.85;2.72;;;5.20;72.90;;;;;;4937443;28;20083;-76
2022/02/21 06:34:48;;;;;;;16.45;3.72;;;5.10;72.80;;;;;;4945491;28;20062;-76
2022/02/21 06:37:14;;;;;;;12.55;3.30;;;5.10;72.90;;;;;;4941343;28;20491;-76
2022/02/21 06:39:40;;;;;;;14.02;3.38;;;5.10;73.00;;;;;;4934738;28;20475;-72
2022/02/21 06:42:05;;;;;;;15.90;3.00;;;5.20;72.60;;;;;;4943889;28;20054;-73
2022/02/21 06:44:31;;;;;;;12.98;2.80;;;5.20;72.30;;;;;;4943616;28;20040;-73
2022/02/21 06:46:57;;;;;;;9.63;2.40;;;5.10;72.60;;;;;;4927494;28;20054;-72
2022/02/21 06:49:22;;;;;;;14.63;3.47;;;5.20;72.50;;;;;;4942365;28;20035;-73
2022/02/21 06:51:48;;;;;;;14.85;3.65;;;5.20;72.20;;;;;;4941814;28;20051;-76
2022/02/21 06:54:14;;;;;;;15.77;3.13;;;5.20;72.40;;;;;;4944115;28;20530;-74
2022/02/21 06:56:39;;;;;;;10.18;2.40;;;5.20;72.40;;;;;;4938487;28;20056;-74
2022/02/21 06:59:05;;;;;;;14.45;3.03;;;5.30;72.20;;;;;;4944532;28;20039;-75
2022/02/21 07:01:31;;;;;;;11.35;2.42;;;5.40;72.20;;;;;;4944772;28;20046;-73
2022/02/21 07:03:56;;;;;;;9.85;3.25;;;5.40;71.80;;;;;;4948458;28;20047;-74
2022/02/21 07:06:22;;;;;;;14.20;3.45;;;5.50;72.00;;;;;;4944290;28;20475;-75
2022/02/21 07:08:48;;;;;;;14.98;4.32;;;5.50;72.00;;;;;;4939841;28;20159;-74
2022/02/21 07:11:13;;;;;;;14.63;3.10;;;5.50;72.10;;;;;;4942802;28;20027;-75
2022/02/21 07:13:39;;;;;;;14.35;3.42;;;5.60;71.90;;;;;;4947051;28;20965;-75
2022/02/21 07:16:05;;;;;;;16.73;2.83;;;5.60;71.90;;;;;;4951769;28;20054;-73
2022/02/21 07:18:31;;;;;;;14.65;4.00;;;5.60;71.80;;;;;;4930300;28;20035;-73
2022/02/21 07:20:57;;;;;;;11.57;3.05;;;5.80;71.60;;;;;;4950534;28;20372;-75
2022/02/21 07:23:22;;;;;;;17.15;3.55;;;5.80;71.60;;;;;;4948277;28;20045;-74
2022/02/21 07:25:48;;;;;;;18.17;3.83;;;5.70;71.60;;;;;;4949431;28;20042;-77
2022/02/21 07:28:15;;;;;;;13.30;3.03;;;5.80;71.60;;;;;;4942686;28;20035;-73
2022/02/21 07:30:42;;;;;;;16.15;3.47;;;5.80;71.70;;;;;;4930804;29;20412;-75
2022/02/21 07:33:08;;;;;;;13.85;3.75;;;5.80;72.00;;;;;;4924100;28;20113;-74
2022/02/21 07:35:34;;;;;;;16.30;3.80;;;5.80;72.10;;;;;;4944974;28;20028;-74
2022/02/21 07:38:00;;;;;;;18.45;4.43;;;5.80;72.10;;;;;;4956350;28;20086;-74
2022/02/21 07:40:26;;;;;;;15.65;3.70;;;5.90;72.20;;;;;;4967184;28;20127;-73
2022/02/21 07:42:53;;;;;;;18.75;4.20;;;5.90;72.10;;;;;;4957309;28;20062;-72
2022/02/21 07:45:23;;;;;;;18.95;3.50;;;5.90;72.10;;;;;;4954041;28;20578;-72
2022/02/21 07:47:51;;;;;;;15.25;3.55;;;5.90;71.90;;;;;;4939358;28;20058;-72
2022/02/21 07:50:18;;;;;;;15.43;3.80;;;6.00;71.90;;;;;;4947565;28;20113;-73
2022/02/21 07:52:44;;;;;;;17.65;4.18;;;6.10;71.80;;;;;;4964165;28;20046;-73
2022/02/21 07:55:10;;;;;;;16.38;4.05;;;6.20;71.80;;;;;;4962298;28;20030;-73
2022/02/21 07:57:40;;;;;;;14.18;3.42;;;6.30;71.50;;;;;;4964063;28;20035;-72
2022/02/21 08:00:06;;;;;;;18.08;3.85;;;6.40;70.90;;;;;;4934616;28;20035;-72
2022/02/21 08:02:32;;;;;;;17.08;3.95;;;6.50;70.40;;;;;;4953073;28;20042;-75
2022/02/21 08:04:57;;;;;;;17.83;3.53;;;6.60;70.40;;;;;;4940640;28;20118;-72
2022/02/21 08:07:23;;;;;;;15.68;4.18;;;6.60;70.10;;;;;;4953059;28;20038;-76
2022/02/21 08:09:49;;;;;;;22.73;4.60;;;6.60;70.40;;;;;;4944882;28;20043;-73
2022/02/21 08:12:14;;;;;;;20.50;3.67;;;6.60;70.20;;;;;;4957728;28;20454;-72
2022/02/21 08:14:40;;;;;;;18.63;4.60;;;6.60;70.50;;;;;;4939959;28;20039;-73
2022/02/21 08:17:06;;;;;;;13.07;2.97;;;6.60;70.60;;;;;;4938174;28;20134;-70
2022/02/21 08:19:31;;;;;;;17.63;4.00;;;6.60;70.20;;;;;;4949534;28;20042;-71
2022/02/21 08:21:57;;;;;;;16.88;3.90;;;6.60;70.00;;;;;;4942783;28;20049;-72
2022/02/21 08:24:23;;;;;;;18.23;4.20;;;6.60;70.70;;;;;;4954075;28;20034;-72
2022/02/21 08:26:49;;;;;;;22.23;3.90;;;6.70;71.10;;;;;;4939623;28;20063;-71
2022/02/21 08:29:15;;;;;;;18.45;4.28;;;6.70;71.40;;;;;;4951641;28;20515;-71
2022/02/21 08:31:41;;;;;;;18.00;3.90;;;6.70;71.90;;;;;;4951947;28;20161;-74
2022/02/21 08:34:08;;;;;;;17.38;3.85;;;6.80;71.70;;;;;;4942200;28;20499;-71
2022/02/21 08:36:34;;;;;;;19.05;4.70;;;6.80;71.20;;;;;;4941362;28;20852;-72
2022/02/21 08:39:00;;;;;;;22.00;4.28;;;6.80;71.30;;;;;;4958542;28;20038;-72
2022/02/21 08:41:26;;;;;;;22.70;4.03;;;6.90;70.80;;;;;;4949877;28;20074;-73
2022/02/21 08:43:54;;;;;;;19.67;3.80;;;7.00;70.10;;;;;;4943283;28;20126;-71
2022/02/21 08:46:20;;;;;;;16.67;4.75;;;7.00;70.10;;;;;;4945435;28;20114;-72
2022/02/21 08:48:46;;;;;;;20.52;4.22;;;7.10;69.80;;;;;;4943027;28;20034;-71
2022/02/21 08:51:12;;;;;;;23.15;4.97;;;7.10;69.50;;;;;;4949454;28;20035;-73
2022/02/21 08:53:38;;;;;;;19.75;4.13;;;7.20;69.70;;;;;;4947464;28;20046;-71
2022/02/21 08:56:04;;;;;;;20.80;4.10;;;7.20;69.80;;;;;;4976648;28;20118;-73
2022/02/21 08:58:30;;;;;;;21.83;4.30;;;7.30;70.10;;;;;;4975243;28;20034;-71
2022/02/21 09:00:56;;;;;;;18.10;4.22;;;7.30;69.90;;;;;;4946774;28;20035;-73
2022/02/21 09:03:26;;;;;;;18.75;4.80;;;7.30;69.90;;;;;;4941326;28;20074;-72
2022/02/21 09:05:52;;;;;;;21.13;4.30;;;7.40;69.90;;;;;;4935860;28;20081;-74
2022/02/21 09:08:18;;;;;;;21.52;4.82;;;7.40;70.10;;;;;;4952617;28;20063;-76
2022/02/21 09:10:45;;;;;;;24.90;5.55;;;7.40;70.20;;;;;;4933119;28;20417;-73
2022/02/21 09:13:11;;;;;;;19.90;5.38;;;7.50;70.50;;;;;;4950200;28;20513;-77
2022/02/21 09:15:37;;;;;;;25.15;4.78;;;7.50;69.70;;;;;;4951406;28;20043;-76
2022/02/21 09:18:05;;;;;;;25.45;6.45;;;7.50;70.00;;;;;;4955678;28;20642;-78
2022/02/21 09:20:38;;;;;;;26.55;4.88;;;7.60;70.00;;;;;;4943812;28;20031;-77
2022/02/21 09:23:05;;;;;;;24.67;5.15;;;7.60;70.20;;;;;;4943299;28;20043;-76
2022/02/21 09:25:31;;;;;;;21.13;4.43;;;7.70;69.90;;;;;;4952704;28;20063;-74
2022/02/21 09:27:57;;;;;;;21.98;5.05;;;7.70;69.80;;;;;;4956016;28;20045;-75
2022/02/21 09:30:23;;;;;;;20.48;5.18;;;7.80;69.90;;;;;;4949711;28;20035;-80
2022/02/21 09:32:49;;;;;;;19.83;5.28;;;7.80;70.10;;;;;;4949344;28;20075;-75
2022/02/21 09:35:15;;;;;;;28.98;5.45;;;7.80;69.80;;;;;;4950528;28;20039;-76
2022/02/21 09:37:41;;;;;;;23.00;5.90;;;7.90;69.80;;;;;;4948868;28;20055;-75
2022/02/21 09:40:12;;;;;;;20.95;5.43;;;7.90;69.70;;;;;;4946112;28;20193;-74
2022/02/21 09:42:39;;;;;;;28.80;6.38;;;7.90;69.90;;;;;;4931529;28;20066;-70
2022/02/21 09:45:06;;;;;;;26.15;5.75;;;7.90;69.70;;;;;;4952701;28;20078;-76
2022/02/21 09:47:33;;;;;;;21.63;5.90;;;8.00;69.40;;;;;;4953759;28;20027;-74
2022/02/21 09:49:59;;;;;;;20.15;5.75;;;8.00;69.20;;;;;;4943249;28;20123;-74
2022/02/21 09:52:26;;;;;;;26.77;6.35;;;8.10;68.90;;;;;;4951161;28;20030;-78
2022/02/21 09:54:52;;;;;;;21.00;5.10;;;8.20;69.20;;;;;;4959045;28;20072;-73
2022/02/21 09:57:18;;;;;;;24.95;5.07;;;8.20;69.00;;;;;;4954246;28;20590;-73
2022/02/21 09:59:45;;;;;;;31.00;6.20;;;8.20;68.50;;;;;;4940035;28;20035;-73
2022/02/21 10:02:19;;;;;;;23.50;5.60;;;8.30;68.70;;;;;;4948742;28;20051;-75
2022/02/21 10:04:45;;;;;;;25.40;5.68;;;8.30;68.70;;;;;;4953873;28;20479;-73
2022/02/21 10:07:11;;;;;;;29.08;5.80;;;8.40;68.50;;;;;;4966405;28;20094;-78
2022/02/21 10:09:42;;;;;;;29.52;6.80;;;8.40;68.40;;;;;;4955633;28;20131;-74
2022/02/21 10:12:20;;;;;;;28.92;8.00;;;8.40;68.40;;;;;;4949616;28;20565;-71
2022/02/21 10:14:46;;;;;;;28.83;6.47;;;8.50;68.60;;;;;;4944665;28;20030;-72
2022/02/21 10:17:14;;;;;;;29.42;6.32;;;8.60;68.00;;;;;;4947638;28;20157;-75
2022/02/21 10:19:42;;;;;;;23.40;5.65;;;8.50;67.90;;;;;;4957375;28;20571;-73
2022/02/21 10:22:12;;;;;;;24.98;5.45;;;8.50;68.40;;;;;;4943396;28;20039;-75
2022/02/21 10:24:41;;;;;;;22.25;5.50;;;8.40;70.50;;;;;;4952046;28;20047;-73
2022/02/21 10:27:18;;;;;;;27.42;6.43;;;8.30;72.10;;;;;;4950024;28;20039;-72
2022/02/21 10:29:48;;;;;;;25.70;5.95;;;8.10;73.10;;;;;;4950654;28;20035;-76
2022/02/21 10:32:17;;;;;;;27.25;6.32;;;8.10;74.50;;;;;;4948725;28;20040;-73
2022/02/21 10:34:45;;;;;;;26.42;6.20;;;8.00;75.30;;;;;;4946641;28;20102;-73
2022/02/21 10:37:13;;;;;;;27.58;6.63;;;7.90;75.90;;;;;;4955111;28;20078;-74
2022/02/21 10:39:39;;;;;;;30.55;6.40;;;7.90;76.00;;;;;;4957193;28;20042;-73
2022/02/21 10:42:09;;;;;;;25.40;6.20;;;7.90;76.30;;;;;;4953946;28;20050;-74
2022/02/21 10:44:39;;;;;;;30.83;6.25;;;7.80;76.90;;;;;;4954795;28;20592;-73
2022/02/21 10:47:12;;;;;;;29.80;7.30;;;7.80;76.20;;;;;;4945048;28;20050;-73
2022/02/21 10:50:03;;;;;;;33.45;6.97;;;7.80;76.90;;;;;;4954455;28;20031;-73
2022/02/21 10:52:40;;;;;;;31.92;6.82;;;7.80;76.90;;;;;;4959356;28;20428;-78
2022/02/21 10:55:09;;;;;;;28.00;6.75;;;7.90;76.60;;;;;;4961994;28;20047;-74
2022/02/21 10:57:40;;;;;;;41.53;7.80;;;7.90;76.20;;;;;;4944162;28;20398;-73
2022/02/21 11:00:08;;;;;;;31.52;6.72;;;7.90;76.00;;;;;;4949494;28;20040;-73
2022/02/21 11:02:35;;;;;;;34.92;6.97;;;8.00;75.80;;;;;;4951872;28;20047;-74
2022/02/21 11:05:02;;;;;;;29.08;6.47;;;8.10;75.20;;;;;;4942591;28;20038;-73
2022/02/21 11:07:28;;;;;;;31.45;6.82;;;8.10;75.50;;;;;;4939824;28;20594;-73
2022/02/21 11:09:58;;;;;;;29.50;6.95;;;8.10;75.00;;;;;;4941505;28;20138;-74
2022/02/21 11:12:34;;;;;;;32.33;6.95;;;8.10;75.30;;;;;;4956054;28;20030;-74
2022/02/21 11:15:01;;;;;;;30.13;8.18;;;8.20;74.50;;;;;;4949968;28;20329;-73
2022/02/21 11:17:29;;;;;;;29.42;6.60;;;8.30;74.60;;;;;;4962834;28;20510;-73
2022/02/21 11:19:57;;;;;;;31.05;6.95;;;8.30;73.90;;;;;;4936348;28;20133;-73
2022/02/21 11:22:24;;;;;;;31.02;7.07;;;8.30;73.90;;;;;;4961825;28;20538;-73
2022/02/21 11:25:01;;;;;;;38.40;8.80;;;8.40;74.10;;;;;;4960806;28;20310;-74
2022/02/21 11:28:03;;;;;;;32.53;6.43;;;8.40;73.80;;;;;;4972934;28;20371;-76
2022/02/21 11:30:31;;;;;;;29.70;7.40;;;8.40;73.90;;;;;;4943068;28;20377;-76
2022/02/21 11:33:10;;;;;;;33.17;7.72;;;8.50;73.60;;;;;;4951649;28;20123;-74
2022/02/21 11:35:44;;;;;;;28.13;6.25;;;8.50;73.50;;;;;;4953758;28;20044;-74
2022/02/21 11:38:12;;;;;;;33.60;7.78;;;8.60;73.80;;;;;;4953620;28;20047;-76
2022/02/21 11:40:58;;;;;;;24.60;6.85;;;8.60;73.40;;;;;;4953892;28;20035;-74
2022/02/21 11:43:52;;;;;;;34.97;8.05;;;8.70;72.00;;;;;;4950702;28;20051;-77
2022/02/21 11:46:23;;;;;;;26.55;6.90;;;8.90;72.10;;;;;;4950023;28;20023;-77
2022/02/21 11:48:57;;;;;;;25.38;6.85;;;8.90;71.40;;;;;;4952413;28;20596;-75
2022/02/21 11:51:40;;;;;;;27.10;5.82;;;8.90;72.40;;;;;;4949880;28;20043;-76
2022/02/21 11:54:12;;;;;;;27.83;6.15;;;8.80;73.10;;;;;;4949391;28;20451;-76
2022/02/21 11:56:50;;;;;;;22.30;5.13;;;8.80;74.10;;;;;;4950765;28;20266;-72
2022/02/21 11:59:22;;;;;;;25.48;5.82;;;8.80;73.60;;;;;;4953949;28;20047;-75
2022/02/21 12:01:59;;;;;;;19.15;5.00;;;8.70;73.60;;;;;;4952487;28;20066;-75
2022/02/21 12:04:25;;;;;;;25.77;5.97;;;8.90;72.90;;;;;;4952782;28;20694;-76
2022/02/21 12:06:53;;;;;;;20.27;5.40;;;9.00;72.20;;;;;;4956429;28;20110;-76
2022/02/21 12:09:19;;;;;;;21.75;5.55;;;9.10;71.50;;;;;;4951480;28;20038;-74
2022/02/21 12:11:45;;;;;;;21.13;5.30;;;9.10;71.50;;;;;;4954983;28;20042;-75
2022/02/21 12:14:11;;;;;;;24.40;5.35;;;9.20;71.40;;;;;;4953886;28;20196;-77
2022/02/21 12:17:13;;;;;;;21.50;5.05;;;9.20;71.20;;;;;;4954621;28;20774;-74
2022/02/21 12:19:42;;;;;;;19.67;4.65;;;9.40;70.50;;;;;;4877674;29;20060;-75
2022/02/21 12:22:11;;;;;;;22.00;4.47;;;9.40;70.00;;;;;;4939124;28;20133;-76
2022/02/21 12:25:05;;;;;;;20.92;5.38;;;9.50;70.30;;;;;;4950453;28;20113;-79
2022/02/21 12:27:31;;;;;;;18.33;4.78;;;9.60;70.00;;;;;;4949027;28;20510;-75
2022/02/21 12:29:57;;;;;;;19.10;5.20;;;9.60;69.90;;;;;;4957129;28;20022;-74
2022/02/21 12:32:28;;;;;;;21.00;4.95;;;9.70;70.30;;;;;;4962546;28;20085;-74
2022/02/21 12:34:56;;;;;;;18.55;4.53;;;9.60;71.10;;;;;;4946697;28;20038;-75
2022/02/21 12:37:21;;;;;;;18.38;4.53;;;9.60;70.50;;;;;;4951950;28;20538;-76
2022/02/21 12:39:48;;;;;;;25.67;5.00;;;9.70;71.30;;;;;;4949800;28;20039;-74
2022/02/21 12:42:21;;;;;;;21.60;5.38;;;9.70;71.50;;;;;;4949647;28;20046;-76
2022/02/21 12:44:47;;;;;;;16.05;4.57;;;9.70;71.20;;;;;;4951447;28;20031;-74
2022/02/21 12:47:13;;;;;;;19.55;4.78;;;9.80;71.10;;;;;;4956760;28;20506;-75
2022/02/21 12:49:47;;;;;;;17.90;4.72;;;9.80;71.10;;;;;;4954819;28;20050;-74